Latest Coastal Weather Observations for Hervey Bay

IDQ60701

Issued at 5:12 pm EST Saturday 23 May 2015 (issued every 10 minutes, with the page automatically refreshed every 10 minutes)

About coastal observations | Map of coastal stations | Coastal observations for QLD | Marine services | Other Formats
Station Details ID: 040405 Name: HERVEY BAY AIRPORT Lat: -25.32 Lon: 152.88 Height: 12.98 m
Data from the previous 72 hours. | See also: Recent months at Hervey Bay
Date/Time
EST
Temp

°C
Wind Pressure Rain
since 9am
mm
Weather Cloud Vis
km
Sea
Height
m
Swell
Dir
 
Speed
knots
Gust
knots
hPa Trend Height
m
Period
s
Dir
23/05:00pm 19.8 S 10 15 1022.1 - 0.0 - Partly cloudy 10 - - - -
23/04:30pm 20.3 S 11 18 1021.7 - 0.0 - Partly cloudy 10 - - - -
23/04:00pm 20.8 S 13 23 1021.5 - 0.0 - Partly cloudy 10 - - - -
23/03:30pm 21.2 S 13 22 1021.4 - 0.0 - Partly cloudy 10 - - - -
23/03:00pm 21.5 S 11 20 1021.0 - 0.0 - Cloudy 10 - - - -
23/02:30pm 21.5 S 13 20 1020.9 - 0.0 - Partly cloudy 10 - - - -
23/02:00pm 21.4 S 13 22 1020.9 - 0.0 - Partly cloudy 10 - - - -
23/01:30pm 21.7 S 13 23 1020.9 - 0.0 - Partly cloudy 10 - - - -
23/01:00pm 21.4 S 14 23 1021.0 - 0.0 - Partly cloudy 10 - - - -
23/12:30pm 22.0 S 11 19 1021.3 - 0.0 - Partly cloudy 10 - - - -
23/12:00pm 21.7 SSE 13 21 1021.4 - 0.0 - Cloudy 10 - - - -
23/11:30am 21.6 S 15 24 1021.5 - 0.0 - Partly cloudy 10 - - - -
23/10:52am 20.4 S 15 25 1021.7 - 0.0 - Partly cloudy 10 - - - -
23/10:30am 20.2 S 13 20 1021.7 - 0.0 - Partly cloudy 10 - - - -
23/10:00am 19.6 S 13 21 1021.6 - 0.0 - - 10 - - - -
23/09:30am 18.4 S 12 19 1021.3 - 0.0 - - 10 - - - -
23/09:00am 17.4 SSW 10 18 1021.3 - 0.2 - - 10 - - - -
23/08:30am 15.6 SSW 11 15 1021.1 - 0.2 - - 10 - - - -
23/08:00am 14.5 SSW 8 10 1020.9 - 0.2 - - 10 - - - -
23/07:30am 13.3 SW 7 10 1020.6 - 0.2 - - 10 - - - -
23/07:00am 12.1 SSW 7 10 1020.2 - 0.2 - - 10 - - - -
23/06:30am 11.6 SSW 7 10 1019.9 - 0.2 - Partly cloudy 10 - - - -
23/06:00am 11.1 SSW 6 8 1019.5 - 0.2 - - 10 - - - -
23/05:30am 11.2 SSW 6 9 1019.1 - 0.2 - - 10 - - - -
23/05:00am 11.5 SSW 7 10 1018.7 - 0.2 - - 10 - - - -
23/04:30am 11.9 SSW 8 12 1018.5 - 0.2 - - 10 - - - -
23/04:00am 11.8 SW 8 10 1018.5 - 0.2 - - 10 - - - -
23/03:30am 11.7 SW 8 14 1018.6 - 0.2 - - 10 - - - -
23/03:00am 11.7 SW 8 11 1018.8 - 0.2 - - 10 - - - -
23/02:30am 11.7 SW 9 13 1018.8 - 0.2 - - 10 - - - -
23/02:00am 11.4 SW 7 9 1019.1 - 0.2 - - 10 - - - -
23/01:30am 11.3 SW 7 8 1019.5 - 0.2 - - 10 - - - -
23/01:00am 11.1 SW 4 6 1019.7 - 0.2 - - 10 - - - -
23/12:30am 11.9 WSW 7 10 1019.6 - 0.2 - - 10 - - - -
23/12:00am 11.2 WSW 5 7 1019.7 - 0.2 - - 10 - - - -
 
Date/Time
EST
Temp

°C
Wind Pressure Rain
since 9am
mm
Weather Cloud Vis
km
Sea
Height
m
Swell
Dir
 
Speed
knots
Gust
knots
hPa Trend Height
m
Period
s
Dir
22/11:30pm 11.9 WSW 6 9 1019.9 - 0.2 - - 10 - - - -
22/11:00pm 12.0 WSW 7 9 1020.0 - 0.2 - - 10 - - - -
22/10:30pm 12.0 WSW 6 9 1020.2 - 0.2 - - 10 - - - -
22/10:00pm 11.7 W 6 8 1020.0 - 0.2 - - 10 - - - -
22/09:30pm 11.6 WSW 6 9 1020.0 - 0.2 - - 10 - - - -
22/09:00pm 11.7 WSW 6 8 1019.8 - 0.2 - - 10 - - - -
22/08:30pm 12.6 W 4 6 1019.9 - 0.2 - - 10 - - - -
22/08:00pm 14.0 WSW 5 8 1019.9 - 0.2 - - 10 - - - -
22/07:30pm 14.8 WSW 8 14 1019.5 - 0.2 - - 10 - - - -
22/07:00pm 15.6 SW 11 17 1019.0 - 0.2 - - 10 - - - -
22/06:30pm 16.1 WSW 10 14 1018.1 - 0.2 - - 10 - - - -
22/06:00pm 16.2 WSW 9 13 1017.6 - 0.2 - - 10 - - - -
22/05:30pm 16.4 WSW 7 10 1017.1 - 0.2 - - 10 - - - -
22/05:00pm 18.0 WSW 9 12 1016.8 - 0.2 - - 10 - - - -
22/04:30pm 19.6 WSW 9 14 1016.6 - 0.2 - - 10 - - - -
22/04:00pm 20.6 WSW 9 16 1016.3 - 0.2 - - 10 - - - -
22/03:30pm 21.0 SW 11 18 1015.9 - 0.2 - - 10 - - - -
22/03:00pm 21.2 WSW 12 19 1015.8 - 0.2 - - 10 - - - -
22/02:30pm 21.9 SW 12 19 1015.6 - 0.2 - - 10 - - - -
22/02:00pm 22.0 SW 11 18 1015.7 - 0.2 - - 10 - - - -
22/01:30pm 22.4 SW 10 15 1015.8 - 0.2 - - 10 - - - -
22/01:00pm 21.8 SW 12 19 1016.0 - 0.2 - - 10 - - - -
22/12:30pm 21.9 SW 12 17 1016.2 - 0.2 - Partly cloudy 10 - - - -
22/12:00pm 21.7 WSW 11 16 1016.7 - 0.0 - - 10 - - - -
22/11:30am 21.4 WSW 11 17 1017.1 - 0.0 - Partly cloudy 10 - - - -
22/11:00am 20.6 WSW 11 16 1017.4 - 0.0 - Partly cloudy 10 - - - -
22/10:30am 21.0 SW 9 15 1017.8 - 0.0 - - 10 - - - -
22/10:00am 19.9 SW 9 15 1018.1 - 0.0 - - 10 - - - -
22/09:30am 18.3 SSW 9 13 1018.2 - 0.0 - Partly cloudy 10 - - - -
22/09:00am 18.0 SW 8 12 1018.0 - 1.2 - Cloudy 10 - - - -
22/08:30am 17.4 WSW 8 12 1017.8 - 1.2 - Partly cloudy 10 - - - -
22/08:00am 17.2 WSW 5 9 1017.6 - 1.2 - Partly cloudy 10 - - - -
22/07:30am 16.9 SW 5 8 1017.4 - 1.2 - Cloudy 10 - - - -
22/07:00am 16.8 SW 4 6 1017.4 - 1.2 - Partly cloudy 10 - - - -
22/06:30am 16.8 WSW 4 6 1017.2 - 1.2 - Partly cloudy 10 - - - -
22/06:00am 17.0 WSW 5 7 1016.8 - 1.2 - Cloudy 10 - - - -
22/05:30am 17.1 WSW 4 5 1016.4 - 1.2 - Cloudy 10 - - - -
22/05:00am 17.1 SW 5 7 1015.9 - 1.2 - Cloudy 10 - - - -
22/04:30am 17.2 SW 5 8 1015.7 - 1.2 - Cloudy 10 - - - -
22/04:00am 17.3 SW 7 12 1015.9 - 1.0 - Cloudy 8 - - - -
22/03:30am 17.5 SSW 8 13 1015.8 - 0.4 - Cloudy 10 - - - -
22/03:00am 18.2 SW 8 14 1015.8 - 0.2 - Cloudy 10 - - - -
22/02:30am 18.5 SSW 8 11 1015.8 - 0.2 - Partly cloudy 10 - - - -
22/02:00am 19.1 SSW 5 8 1016.0 - 0.2 - Partly cloudy 10 - - - -
22/01:30am 19.4 SSW 5 7 1016.2 - 0.2 - Partly cloudy 10 - - - -
22/01:27am 19.5 SSW 5 7 1016.2 - 0.2 - Partly cloudy 10 - - - -
22/01:17am 19.8 SSW 4 7 1016.2 - 0.2 - Partly cloudy 10 - - - -
22/01:15am 19.8 SSW 4 7 1016.2 - 0.2 - Partly cloudy 10 - - - -
22/01:00am 19.8 SSW 6 7 1016.3 - 0.2 - Cloudy 10 - - - -
22/12:30am 20.1 S 6 8 1016.4 - 0.2 - Cloudy 10 - - - -
22/12:13am 20.4 SSW 7 11 1016.6 - 0.2 - Partly cloudy 10 - - - -
22/12:00am 20.5 SW 5 6 1016.5 - 0.2 - Cloudy 10 - - - -
 
Date/Time
EST
Temp

°C
Wind Pressure Rain
since 9am
mm
Weather Cloud Vis
km
Sea
Height
m
Swell
Dir
 
Speed
knots
Gust
knots
hPa Trend Height
m
Period
s
Dir
21/11:45pm 20.5 SW 3 4 1016.6 - 0.2 - Partly cloudy 10 - - - -
21/11:30pm 20.6 WSW 5 6 1016.8 - 0.2 - Partly cloudy 8 - - - -
21/11:00pm 20.3 S 2 4 1017.0 - 0.2 - Partly cloudy 10 - - - -
21/10:30pm 20.0 SSW 5 6 1017.1 - 0.2 - Partly cloudy 10 - - - -
21/10:29pm 20.2 SSW 5 6 1017.2 - 0.2 - Partly cloudy 10 - - - -
21/10:00pm 20.0 CALM 0 0 1017.4 - 0.2 - Partly cloudy 10 - - - -
21/09:30pm 19.9 NE 3 3 1017.5 - 0.2 - Partly cloudy 10 - - - -
21/09:00pm 20.5 NE 3 5 1017.2 - 0.2 - Mostly clear 10 - - - -
21/08:30pm 20.2 ENE 3 4 1017.0 - 0.2 - - 10 - - - -
21/08:00pm 20.5 CALM 0 0 1016.9 - 0.2 - Partly cloudy 10 - - - -
21/07:30pm 21.7 CALM 0 0 1016.9 - 0.2 - Partly cloudy 10 - - - -
21/07:00pm 21.8 CALM 0 3 1016.8 - 0.2 - Partly cloudy 10 - - - -
21/06:30pm 22.0 NW 3 5 1016.6 - 0.2 - Cloudy 10 - - - -
21/06:00pm 22.1 N 6 9 1016.3 - 0.2 - Cloudy 10 - - - -
21/05:30pm 22.4 N 7 10 1016.1 - 0.2 - Partly cloudy 10 - - - -
21/05:00pm 22.7 NNE 6 8 1015.8 - 0.2 - Partly cloudy 10 - - - -
21/04:30pm 23.0 NNE 5 8 1015.6 - 0.2 - Partly cloudy 10 - - - -
21/04:00pm 23.3 NNE 5 7 1015.5 - 0.2 - Partly cloudy 10 - - - -
21/03:30pm 23.3 N 5 7 1015.5 - 0.2 - Partly cloudy 10 - - - -
21/03:00pm 23.8 N 6 10 1015.5 - 0.2 - Partly cloudy 10 - - - -
21/02:30pm 24.9 N 7 10 1015.4 - 0.2 - Partly cloudy 10 - - - -
21/02:00pm 24.8 N 7 10 1015.6 - 0.2 - Partly cloudy 10 - - - -
21/01:30pm 25.1 NNW 7 12 1015.9 - 0.2 - - 10 - - - -
21/01:00pm 25.5 N 8 10 1016.2 - 0.2 - Partly cloudy 10 - - - -
21/12:30pm 24.6 N 7 9 1017.0 - 0.2 - Partly cloudy 10 - - - -
21/12:00pm 25.3 NNW 7 10 1017.6 - 0.2 - Mostly cloudy 10 - - - -
21/11:57am 25.5 N 6 11 1017.6 - 0.2 - Partly cloudy 10 - - - -
21/11:30am 25.1 N 5 8 1018.1 - 0.2 - Partly cloudy 10 - - - -
21/11:00am 24.1 NNW 7 10 1018.4 - 0.2 - Partly cloudy 10 - - - -
21/10:46am 24.3 N 6 9 1018.6 - 0.0 - Partly cloudy 10 - - - -
21/10:37am 23.8 N 5 7 1018.7 - 0.0 - Partly cloudy 10 - - - -
21/10:30am 23.9 NNW 5 7 1018.9 - 0.0 - Partly cloudy 10 - - - -
21/10:00am 23.6 NE 4 6 1019.1 - 0.0 - Partly cloudy 10 - - - -
21/09:30am 22.5 E 3 5 1019.4 - 0.0 - Partly cloudy 10 - - - -
21/09:00am 21.5 CALM 0 0 1019.5 - 0.0 - Cloudy 10 - - - -
21/08:30am 20.4 SSW 5 6 1019.4 - 0.0 - Partly cloudy 10 - - - -
21/08:00am 19.2 CALM 0 0 1019.2 - 0.0 - Partly cloudy 10 - - - -
21/07:52am 19.1 CALM 0 0 1019.2 - 0.0 - Partly cloudy 10 - - - -
21/07:39am 18.8 CALM 0 0 1019.2 - 0.0 - Partly cloudy 8 - - - -
21/07:30am 18.6 CALM 0 0 1019.1 - 0.0 - Partly cloudy 6 - - - -
21/07:00am 18.2 CALM 0 2 1018.6 - 0.0 - Partly cloudy 0.7 - - - -
21/06:30am 18.0 SSW 3 5 1018.6 - 0.0 - Partly cloudy 0.5 - - - -
21/06:00am 17.9 SW 3 5 1018.6 - 0.0 - Cloudy 2 - - - -
21/05:53am 17.8 SW 4 6 1018.5 - 0.0 - Cloudy 5 - - - -
21/05:30am 17.7 WSW 3 4 1018.0 - 0.0 - Partly cloudy 10 - - - -
21/05:00am 17.4 SSW 4 5 1017.8 - 0.0 - Cloudy 8 - - - -
21/04:30am 16.5 CALM 0 0 1017.8 - 0.0 - Cloudy 10 - - - -
21/04:06am 16.2 CALM 0 0 1017.6 - 0.0 - Partly cloudy 10 - - - -
21/04:00am 16.0 CALM 0 0 1017.6 - 0.0 - Partly cloudy 10 - - - -
21/03:57am 16.0 CALM 0 0 1017.5 - 0.0 - Partly cloudy 8 - - - -
21/03:46am 16.0 CALM 0 0 1017.5 - 0.0 - - 5 - - - -
21/03:30am 16.6 CALM 0 0 1017.6 - 0.0 - Partly cloudy 10 - - - -
21/03:00am 17.1 SW 2 4 1017.9 - 0.0 - Mostly cloudy 10 - - - -
21/02:36am 17.1 S 3 4 1018.0 - 0.0 - Partly cloudy 10 - - - -
21/02:30am 17.0 SSW 4 5 1018.1 - 0.0 - Partly cloudy 7 - - - -
21/02:12am 15.8 SSW 4 5 1018.1 - 0.0 - Partly cloudy 5 - - - -
21/02:00am 15.7 CALM 0 0 1018.1 - 0.0 - Partly cloudy 10 - - - -
21/01:58am 15.7 CALM 0 0 1018.1 - 0.0 - Partly cloudy 10 - - - -
21/01:40am 15.8 CALM 0 0 1018.2 - 0.0 - Partly cloudy 4 - - - -
21/01:30am 15.9 CALM 0 0 1018.2 - 0.0 - - 4 - - - -
21/01:28am 15.9 CALM 0 0 1018.2 - 0.0 - - 5 - - - -
21/01:00am 15.8 CALM 0 0 1018.6 - 0.0 - - 10 - - - -
21/12:39am 15.9 CALM 0 0 1018.5 - 0.0 - - 5 - - - -
21/12:30am 16.2 CALM 0 0 1018.6 - 0.0 - - 10 - - - -
21/12:00am 16.2 CALM 0 0 1018.9 - 0.0 - - 10 - - - -
 
Date/Time
EST
Temp

°C
Wind Pressure Rain
since 9am
mm
Weather Cloud Vis
km
Sea
Height
m
Swell
Dir
 
Speed
knots
Gust
knots
hPa Trend Height
m
Period
s
Dir
20/11:30pm 16.5 NE 4 4 1018.9 - 0.0 - - 10 - - - -
20/11:00pm 16.6 ENE 1 4 1019.1 - 0.0 - - 10 - - - -
20/10:30pm 16.5 CALM 0 0 1019.3 - 0.0 - - 10 - - - -
20/10:00pm 16.9 CALM 0 0 1019.3 - 0.0 - - 10 - - - -
20/09:30pm 17.2 ENE 2 3 1019.4 - 0.0 - - 10 - - - -
20/09:00pm 17.2 CALM 0 0 1019.5 - 0.0 - - 10 - - - -
20/08:30pm 17.7 CALM 0 0 1019.4 - 0.0 - - 10 - - - -
20/08:00pm 18.1 CALM 0 0 1019.1 - 0.0 - - 10 - - - -
20/07:30pm 18.5 CALM 0 0 1019.0 - 0.0 - - 10 - - - -
20/07:00pm 19.0 NE 3 4 1018.6 - 0.0 - - 10 - - - -
20/06:30pm 19.6 ENE 1 5 1018.5 - 0.0 - - 10 - - - -
20/06:00pm 20.8 E 3 5 1018.5 - 0.0 - - 10 - - - -
20/05:30pm 21.9 ENE 6 8 1018.1 - 0.0 - - 10 - - - -

Other Formats:

Comma delimited format used in spreadsheet applications
http://www.bom.gov.au/fwo/IDQ60701/IDQ60701.95565.axf

JavaScript Object Notation format (JSON) in row-major order
http://www.bom.gov.au/fwo/IDQ60701/IDQ60701.95565.json